Latest Weather Observations for Adelaide Airport

IDS60801

Issued at 6:31 am CST Friday 28 August 2015 (issued every 30 minutes, with the page automatically refreshed every 10 minutes)

About weather observations | Map of weather stations | Latest weather observations for SA | Other Formats
Station Details ID: 023034 Name: ADELAIDE AIRPORT Lat: -34.95 Lon: 138.52 Height: 2.0 m
Data from the previous 72 hours. | See also: Recent months at Adelaide Airport
Date/Time
CST
Temp
°C
App
Temp
°C
Dew
Point
Rel
Hum
%
Delta-T
°C
Wind Press
QNH
hPa
Press
MSL
hPa
Rain
since 9 am
mm
Dir
 
Spd
km/h
Gust
km/h
Spd
kts
Gust
kts
28/06:00am 9.8 9.6 9.2 96 0.3 CALM 0 0 0 0 1028.8 1028.8 1.2
28/05:46am 9.8 9.3 9.2 96 0.3 SSE 2 7 1 4 1028.8 1028.8 1.2
28/05:30am 9.8 8.0 9.4 97 0.2 SSE 9 11 5 6 1028.8 1028.8 1.2
28/05:16am 9.8 7.6 9.4 97 0.2 S 11 15 6 8 1028.8 1028.8 0.8
28/05:00am 9.8 7.2 9.4 97 0.2 SSW 13 17 7 9 1028.6 1028.6 0.8
28/04:56am 9.8 7.2 9.4 97 0.2 SSW 13 17 7 9 1028.6 1028.6 0.8
28/04:44am 9.8 7.6 9.4 97 0.2 SW 11 13 6 7 1028.5 1028.5 0.6
28/04:30am 9.8 7.2 9.4 97 0.2 SW 13 17 7 9 1028.5 1028.5 0.6
28/04:00am 9.8 7.2 9.4 97 0.2 SSW 13 15 7 8 1028.3 1028.3 0.4
28/03:30am 10.0 7.3 9.0 93 0.5 SSW 13 17 7 9 1028.1 1028.1 0.2
28/03:24am 10.1 7.8 8.9 92 0.6 SSW 11 15 6 8 1028.0 1028.0 0.0
28/03:00am 10.2 7.6 7.9 86 1.1 SSW 11 13 6 7 1028.2 1028.2 0.0
28/02:30am 9.6 6.6 7.7 88 0.9 SSW 13 15 7 8 1028.3 1028.3 0.0
28/02:00am 8.5 6.5 7.0 90 0.7 SE 7 9 4 5 1028.2 1028.2 0.0
28/01:30am 7.7 5.1 5.9 88 0.8 SSW 9 9 5 5 1028.1 1028.1 0.0
28/01:00am 7.4 4.3 5.6 88 0.8 S 11 13 6 7 1028.1 1028.1 0.0
28/12:48am 7.5 4.4 5.5 87 0.9 S 11 13 6 7 1028.1 1028.1 0.0
28/12:30am 7.7 5.4 5.9 88 0.8 S 7 7 4 4 1028.1 1028.1 0.0
28/12:00am 7.6 4.9 5.8 88 0.8 S 9 9 5 5 1028.2 1028.2 0.0
 
Date/Time
CST
Temp
°C
App
Temp
°C
Dew
Point
Rel
Hum
%
Delta-T
°C
Wind Press
QNH
hPa
Press
MSL
hPa
Rain
since 9 am
mm
Dir
 
Spd
km/h
Gust
km/h
Spd
kts
Gust
kts
27/11:30pm 7.8 4.8 5.8 87 0.9 SSW 11 13 6 7 1028.1 1028.1 0.0
27/11:00pm 8.0 5.0 6.0 87 0.9 S 11 13 6 7 1028.5 1028.5 0.0
27/10:30pm 8.1 5.5 5.9 86 1.0 SSW 9 11 5 6 1028.5 1028.5 0.0
27/10:00pm 9.2 7.2 6.4 83 1.3 SW 6 7 3 4 1028.7 1028.7 0.0
27/09:30pm 8.5 6.2 5.8 83 1.2 SW 7 9 4 5 1028.7 1028.7 0.0
27/09:00pm 9.0 6.7 5.7 80 1.5 SSW 7 9 4 5 1028.6 1028.6 0.0
27/08:30pm 9.3 7.1 6.0 80 1.5 S 7 9 4 5 1028.5 1028.5 0.0
27/08:00pm 9.6 7.0 6.1 79 1.6 S 9 11 5 6 1028.2 1028.2 0.0
27/07:30pm 9.9 6.9 6.0 77 1.8 S 11 13 6 7 1028.0 1028.0 0.0
27/07:00pm 10.8 7.4 5.8 71 2.3 S 13 17 7 9 1027.7 1027.7 0.0
27/06:30pm 12.1 8.6 5.4 63 3.1 S 13 17 7 9 1027.4 1027.4 0.0
27/06:00pm 12.1 8.0 6.4 68 2.7 S 17 22 9 12 1026.8 1026.8 0.0
27/05:30pm 12.7 9.4 6.3 65 3.0 SSE 13 19 7 10 1026.4 1026.4 0.0
27/05:00pm 13.8 10.6 7.0 63 3.3 SSE 13 17 7 9 1026.0 1026.0 0.0
27/04:30pm 13.7 9.6 7.8 67 2.9 SSW 19 28 10 15 1025.9 1025.9 0.0
27/04:00pm 13.4 9.0 7.2 66 3.0 SSW 20 30 11 16 1025.8 1025.8 0.0
27/03:30pm 12.2 9.8 8.8 80 1.7 SW 11 15 6 8 1025.8 1025.8 0.0
27/03:00pm 12.7 9.4 8.2 74 2.2 S 15 22 8 12 1025.7 1025.7 0.0
27/02:30pm 12.9 8.0 7.1 68 2.8 SW 22 30 12 16 1025.7 1025.7 0.0
27/02:00pm 12.8 8.4 7.4 69 2.6 SSW 20 28 11 15 1025.6 1025.6 0.0
27/01:30pm 14.4 10.0 8.8 69 2.8 SW 22 30 12 16 1025.6 1025.6 0.0
27/01:00pm 14.2 9.0 7.2 63 3.4 SW 24 32 13 17 1025.9 1025.9 0.0
27/12:30pm 13.5 9.7 9.1 75 2.2 WSW 19 26 10 14 1026.1 1026.1 0.0
27/12:00pm 12.7 9.2 8.7 76 2.0 W 17 22 9 12 1026.4 1026.4 0.0
27/11:30am 12.9 9.3 8.2 73 2.3 WSW 17 22 9 12 1026.6 1026.6 0.0
27/11:00am 12.3 8.9 7.8 74 2.2 WSW 15 22 8 12 1026.7 1026.7 0.0
27/10:30am 12.2 9.1 7.2 71 2.4 SW 13 17 7 9 1026.7 1026.7 0.0
27/10:00am 12.0 10.0 7.2 72 2.3 WSW 7 13 4 7 1026.7 1026.7 0.0
27/09:30am 11.7 9.8 6.8 72 2.3 NE 6 9 3 5 1026.5 1026.5 0.0
27/09:00am 9.7 7.4 5.7 76 1.8 NNE 7 9 4 5 1026.3 1026.3 0.0
27/08:30am 8.9 5.8 5.6 80 1.5 NE 11 13 6 7 1026.4 1026.4 0.0
27/08:00am 8.0 5.7 5.8 86 1.0 ENE 7 13 4 7 1026.0 1026.0 0.0
27/07:30am 7.1 4.8 4.6 84 1.1 NE 6 9 3 5 1025.6 1025.6 0.0
27/07:00am 6.3 2.9 3.9 85 1.0 NE 11 15 6 8 1025.4 1025.4 0.0
27/06:30am 6.3 3.4 4.4 88 0.8 ENE 9 11 5 6 1024.9 1024.9 0.0
27/06:00am 6.2 2.9 4.3 88 0.8 NE 11 11 6 6 1024.7 1024.7 0.0
27/05:30am 6.7 3.4 4.6 86 0.9 NE 11 13 6 7 1024.3 1024.3 0.0
27/05:00am 6.5 3.6 4.4 86 0.9 NE 9 11 5 6 1024.1 1024.1 0.0
27/04:30am 6.1 3.0 3.7 84 1.0 NE 9 11 5 6 1024.0 1024.0 0.0
27/04:00am 6.2 3.1 3.8 85 1.0 NE 9 13 5 7 1023.8 1023.8 0.0
27/03:30am 5.6 3.4 3.2 84 1.0 NE 4 7 2 4 1023.8 1023.8 0.0
27/03:00am 5.8 3.1 3.6 86 0.9 NE 7 9 4 5 1023.8 1023.8 0.0
27/02:30am 4.8 1.6 3.3 90 0.6 NE 9 9 5 5 1023.9 1023.9 0.0
27/02:00am 5.3 1.8 3.6 89 0.7 NE 11 11 6 6 1024.0 1024.0 0.0
27/01:30am 5.0 1.8 3.0 87 0.8 NE 9 9 5 5 1024.1 1024.1 0.0
27/01:00am 6.6 4.6 4.3 85 1.0 NNE 4 7 2 4 1024.3 1024.3 0.0
27/12:30am 6.1 4.9 4.5 89 0.7 CALM 0 0 0 0 1024.2 1024.2 0.0
27/12:00am 5.7 4.5 4.5 92 0.5 CALM 0 0 0 0 1024.4 1024.4 0.0
 
Date/Time
CST
Temp
°C
App
Temp
°C
Dew
Point
Rel
Hum
%
Delta-T
°C
Wind Press
QNH
hPa
Press
MSL
hPa
Rain
since 9 am
mm
Dir
 
Spd
km/h
Gust
km/h
Spd
kts
Gust
kts
26/11:30pm 6.2 4.7 4.8 91 0.6 SE 2 6 1 3 1024.5 1024.5 0.0
26/11:00pm 6.5 3.9 4.4 86 0.9 E 7 7 4 4 1024.7 1024.7 0.0
26/10:30pm 7.0 4.4 4.4 83 1.1 E 7 7 4 4 1024.9 1024.9 0.0
26/10:00pm 7.8 5.6 5.1 83 1.2 E 6 7 3 4 1025.0 1025.0 0.0
26/09:30pm 7.8 5.4 5.1 83 1.2 ESE 7 9 4 5 1025.0 1025.0 0.0
26/09:00pm 8.1 5.2 4.9 80 1.4 E 9 9 5 5 1025.0 1025.0 0.0
26/08:30pm 8.7 7.7 5.6 81 1.4 CALM 0 0 0 0 1024.9 1024.9 0.0
26/08:00pm 9.8 8.8 5.6 75 1.9 CALM 0 2 0 1 1024.7 1024.7 0.0
26/07:30pm 10.0 7.8 5.1 71 2.2 S 6 7 3 4 1024.5 1024.5 0.0
26/07:00pm 10.3 7.7 5.9 74 2.0 SSW 9 9 5 5 1024.3 1024.3 0.0
26/06:30pm 11.2 7.7 5.5 68 2.6 SSW 13 15 7 8 1024.1 1024.1 0.0
26/06:00pm 11.8 8.1 4.2 59 3.4 SW 13 17 7 9 1023.7 1023.7 0.0
26/05:30pm 12.4 8.0 5.0 60 3.4 SW 17 22 9 12 1023.7 1023.7 0.0
26/05:00pm 12.7 9.0 6.4 65 3.0 SSW 15 19 8 10 1023.3 1023.3 0.0
26/04:30pm 13.3 9.0 5.3 58 3.7 SSW 17 24 9 13 1023.3 1023.3 0.0
26/04:00pm 13.4 8.8 5.5 59 3.7 SW 19 24 10 13 1023.3 1023.3 0.0
26/03:30pm 13.6 8.9 6.0 60 3.6 SW 20 26 11 14 1023.2 1023.2 0.0
26/03:00pm 14.0 7.8 6.2 59 3.7 SW 28 30 15 16 1023.3 1023.3 0.0
26/02:30pm 14.4 8.3 6.5 59 3.8 WSW 28 32 15 17 1023.4 1023.4 0.0
26/02:00pm 13.5 8.4 7.8 68 2.8 SW 24 30 13 16 1023.4 1023.4 0.0
26/01:30pm 13.7 8.5 7.1 64 3.2 WSW 24 30 13 16 1023.6 1023.6 0.0
26/01:00pm 13.4 8.4 7.9 69 2.7 WSW 24 30 13 16 1023.8 1023.8 0.0
26/12:30pm 13.3 8.6 7.6 68 2.8 WSW 22 28 12 15 1024.1 1024.1 0.0
26/12:00pm 12.9 7.6 6.8 66 2.9 WSW 24 28 13 15 1024.5 1024.5 0.0
26/11:30am 13.0 7.9 6.2 63 3.2 WSW 22 28 12 15 1024.8 1024.8 0.0
26/11:00am 13.1 8.5 6.3 63 3.2 WSW 20 26 11 14 1025.1 1025.1 0.0
26/10:30am 13.1 9.0 6.1 62 3.3 WSW 17 24 9 13 1025.2 1025.2 0.0
26/10:00am 12.8 8.6 5.7 62 3.3 WSW 17 20 9 11 1025.3 1025.3 0.0
26/09:30am 12.0 8.9 5.5 64 3.0 WSW 11 15 6 8 1025.5 1025.5 0.0
26/09:00am 11.6 9.4 6.2 69 2.5 SW 7 9 4 5 1025.6 1025.6 0.0
26/08:30am 10.9 9.6 6.2 73 2.2 WSW 2 6 1 3 1025.6 1025.6 0.0
26/08:00am 10.0 7.6 6.8 80 1.5 SSE 9 11 5 6 1025.4 1025.4 0.0
26/07:30am 9.3 7.2 6.7 84 1.2 SE 7 9 4 5 1025.3 1025.3 0.0
26/07:00am 8.9 6.9 6.3 84 1.2 ENE 6 7 3 4 1025.2 1025.2 0.0
26/06:30am 8.9 6.7 6.0 82 1.3 NE 7 9 4 5 1025.2 1025.2 0.0
26/06:00am 8.8 6.3 6.4 85 1.1 NE 9 11 5 6 1025.1 1025.1 0.0
26/05:30am 9.2 6.7 6.6 84 1.2 NE 9 11 5 6 1025.1 1025.1 0.0
26/05:00am 9.4 7.2 6.4 81 1.4 NE 7 7 4 4 1025.1 1025.1 0.0
26/04:30am 9.1 7.5 6.5 84 1.2 NE 4 7 2 4 1025.0 1025.0 0.0
26/04:00am 9.0 8.1 6.2 82 1.3 CALM 0 0 0 0 1025.1 1025.1 0.0
26/03:30am 9.0 7.3 5.9 81 1.4 NE 4 6 2 3 1025.1 1025.1 0.0
26/03:00am 9.2 8.2 5.7 79 1.6 CALM 0 0 0 0 1025.3 1025.3 0.0
26/02:30am 9.2 8.3 5.9 80 1.5 CALM 0 0 0 0 1025.5 1025.5 0.0
26/02:00am 9.1 6.9 6.0 81 1.4 S 7 7 4 4 1025.7 1025.7 0.0
26/01:30am 9.2 6.6 5.9 80 1.5 SE 9 13 5 7 1025.8 1025.8 0.0
26/01:00am 9.4 7.2 6.1 80 1.5 S 7 11 4 6 1026.0 1026.0 0.0
26/12:30am 9.3 7.1 6.0 80 1.5 S 7 9 4 5 1026.2 1026.2 0.0
26/12:00am 8.4 5.7 5.7 83 1.2 S 9 11 5 6 1026.3 1026.3 0.0
 
Date/Time
CST
Temp
°C
App
Temp
°C
Dew
Point
Rel
Hum
%
Delta-T
°C
Wind Press
QNH
hPa
Press
MSL
hPa
Rain
since 9 am
mm
Dir
 
Spd
km/h
Gust
km/h
Spd
kts
Gust
kts
25/11:30pm 8.1 5.4 5.4 83 1.2 S 9 11 5 6 1026.4 1026.4 0.0
25/11:00pm 8.4 6.1 5.5 82 1.3 SW 7 11 4 6 1026.5 1026.5 0.0
25/10:30pm 8.7 6.3 5.3 79 1.5 SW 7 11 4 6 1026.7 1026.7 0.0
25/10:00pm 9.5 6.7 5.3 75 1.9 S 9 13 5 7 1026.8 1026.8 0.0
25/09:30pm 8.7 5.9 5.1 78 1.6 SW 9 13 5 7 1026.9 1026.9 0.0
25/09:00pm 9.1 6.6 4.8 74 1.9 SW 7 9 4 5 1027.1 1027.1 0.0
25/08:30pm 9.1 6.7 5.1 76 1.8 SW 7 9 4 5 1027.2 1027.2 0.0
25/08:00pm 9.2 6.3 4.9 74 1.9 SW 9 13 5 7 1027.2 1027.2 0.0
25/07:30pm 9.0 6.0 4.2 72 2.1 S 9 11 5 6 1027.2 1027.2 0.0
25/07:00pm 9.7 6.3 4.2 68 2.4 SSE 11 15 6 8 1027.1 1027.1 0.0
25/06:30pm 10.2 5.1 3.0 61 3.1 SSE 19 28 10 15 1026.9 1026.9 0.0
25/06:00pm 10.9 5.4 1.9 54 3.8 SSE 20 28 11 15 1026.6 1026.6 0.0
25/05:30pm 12.0 6.2 0.0 43 4.9 SSE 20 26 11 14 1026.3 1026.3 0.0
25/05:00pm 12.8 5.7 -0.9 38 5.5 S 26 35 14 19 1026.0 1026.0 0.0
25/04:30pm 13.4 6.2 -2.1 34 6.1 SSE 26 33 14 18 1025.8 1025.8 0.0
25/04:00pm 14.0 7.3 -1.0 35 6.1 SSE 24 37 13 20 1025.9 1025.9 0.0
25/03:30pm 14.5 8.2 -1.3 33 6.4 SE 22 33 12 18 1026.0 1026.0 0.0
25/03:00pm 14.4 8.0 -1.4 33 6.4 SSE 22 32 12 17 1026.0 1026.0 0.0
25/02:30pm 14.8 7.6 -2.3 30 6.8 SSE 26 39 14 21 1026.1 1026.1 0.0
25/02:00pm 15.1 8.2 -2.5 29 7.0 SSE 24 33 13 18 1026.2 1026.2 0.0
25/01:30pm 15.2 8.5 -1.1 32 6.7 SE 24 33 13 18 1026.4 1026.4 0.0
25/01:00pm 14.7 7.5 -2.1 31 6.8 SSE 26 33 14 18 1027.0 1027.0 0.0
25/12:30pm 14.3 7.1 0.5 39 5.8 SE 28 35 15 19 1027.4 1027.4 0.0
25/12:00pm 13.7 6.8 -0.1 38 5.7 SE 26 43 14 23 1027.8 1027.8 0.0
25/11:30am 14.1 6.7 -0.5 36 6.0 SE 28 39 15 21 1028.2 1028.2 0.0
25/11:00am 13.6 6.3 0.1 39 5.6 SE 28 39 15 21 1028.5 1028.5 0.0
25/10:30am 13.8 7.1 1.7 44 5.2 SE 26 35 14 19 1028.5 1028.5 0.0
25/10:00am 12.6 6.0 1.8 47 4.6 SE 26 39 14 21 1028.7 1028.7 0.0
25/09:30am 12.2 6.1 2.5 51 4.2 SSE 24 33 13 18 1028.8 1028.8 0.0
25/09:00am 11.6 6.0 3.6 58 3.5 SSE 22 30 12 16 1028.9 1028.9 0.0
25/08:30am 11.0 6.8 4.0 62 3.1 SSE 15 20 8 11 1029.0 1029.0 0.0
25/08:00am 10.6 6.4 4.0 63 2.9 SE 15 20 8 11 1028.7 1028.7 0.0
25/07:30am 10.0 6.3 4.3 67 2.5 SE 13 17 7 9 1028.4 1028.4 0.0
25/07:00am 9.2 5.0 3.9 69 2.3 SE 15 20 8 11 1028.0 1028.0 0.0

Other Formats:

Comma delimited format used in spreadsheet applications
http://www.bom.gov.au/fwo/IDS60801/IDS60801.94672.axf

JavaScript Object Notation format (JSON) in row-major order
http://www.bom.gov.au/fwo/IDS60801/IDS60801.94672.json